Time;durP1;ratioP1;P1;durP2;ratioP2;P2;SDS_P1;SDS_P2;PMS_P1;PMS_P2;Temp;Humidity;BMP_temperature;BMP_pressure;BME280_temperature;BME280_humidity;BME280_pressure;Samples;Min_cycle;Max_cycle;Signal;HPM_P1;HPM_P2
2022/11/11 00:01:15;;;;;;;11.60;8.30;;;10.00;99.90;;;;;;5062134;28;20221;-52
2022/11/11 00:03:42;;;;;;;17.00;8.53;;;10.10;99.90;;;;;;5056398;28;20214;-52
2022/11/11 00:06:12;;;;;;;12.33;8.40;;;10.10;99.90;;;;;;5057854;28;20197;-52
2022/11/11 00:08:39;;;;;;;12.40;8.93;;;10.10;99.90;;;;;;5063536;28;20209;-52
2022/11/11 00:11:12;;;;;;;12.23;8.40;;;10.10;99.90;;;;;;5060300;28;20298;-52
2022/11/11 00:13:39;;;;;;;11.67;8.97;;;10.10;99.90;;;;;;5058984;28;20240;-53
2022/11/11 00:16:15;;;;;;;15.40;9.27;;;10.10;99.90;;;;;;5057761;28;20208;-54
2022/11/11 00:27:12;;;;;;;13.87;10.13;;;10.20;99.90;;;;;;5070304;28;20227;-53
2022/11/11 00:29:40;;;;;;;14.67;10.20;;;10.30;99.90;;;;;;5069593;28;20203;-53
2022/11/11 00:32:23;;;;;;;16.20;10.60;;;10.30;99.90;;;;;;5069715;28;20211;-54
2022/11/11 00:37:36;;;;;;;14.13;11.17;;;10.30;99.90;;;;;;5068914;28;20506;-52
2022/11/11 00:40:04;;;;;;;14.50;10.43;;;10.30;99.90;;;;;;5064546;28;20236;-54
2022/11/11 00:42:31;;;;;;;12.67;10.27;;;10.30;99.90;;;;;;5083033;28;20283;-52
2022/11/11 00:44:58;;;;;;;15.73;10.60;;;10.40;99.90;;;;;;5060208;28;20228;-53
2022/11/11 00:53:12;;;;;;;14.47;10.33;;;10.40;99.90;;;;;;5067636;28;20662;-52
2022/11/11 00:55:39;;;;;;;15.40;10.70;;;10.40;99.90;;;;;;5067400;28;20201;-53
2022/11/11 00:58:06;;;;;;;18.30;11.33;;;10.40;99.90;;;;;;5068185;28;20199;-51
2022/11/11 01:00:33;;;;;;;14.57;10.40;;;10.40;99.90;;;;;;5065710;28;20732;-52
2022/11/11 01:03:00;;;;;;;14.23;10.23;;;10.40;99.90;;;;;;5064056;28;20659;-53
2022/11/11 01:05:27;;;;;;;15.50;10.70;;;10.40;99.90;;;;;;5063203;28;20301;-52
2022/11/11 01:07:54;;;;;;;16.50;11.80;;;10.40;99.90;;;;;;5066772;28;20201;-51
2022/11/11 01:10:37;;;;;;;15.70;10.67;;;10.40;99.90;;;;;;5062957;28;20223;-50
2022/11/11 01:13:16;;;;;;;16.17;10.63;;;10.50;99.90;;;;;;5062591;28;20208;-52
2022/11/11 01:15:46;;;;;;;17.40;11.07;;;10.50;99.90;;;;;;5061680;28;20194;-52
2022/11/11 01:18:17;;;;;;;14.13;10.60;;;10.50;99.90;;;;;;5064509;28;20209;-51
2022/11/11 01:20:44;;;;;;;22.90;11.87;;;10.50;99.90;;;;;;5067944;28;20209;-54
2022/11/11 01:23:12;;;;;;;17.10;10.67;;;10.50;99.90;;;;;;5068861;28;20336;-53
2022/11/11 01:25:41;;;;;;;14.23;10.73;;;10.50;99.90;;;;;;5069458;28;20206;-53
2022/11/11 01:28:08;;;;;;;17.37;10.87;;;10.60;99.90;;;;;;5064261;28;20233;-52
2022/11/11 01:30:36;;;;;;;15.60;10.43;;;10.50;99.90;;;;;;5067597;28;20757;-52
2022/11/11 01:33:03;;;;;;;14.43;10.20;;;10.50;99.90;;;;;;5069123;28;20215;-53
2022/11/11 01:35:31;;;;;;;16.80;10.67;;;10.50;99.90;;;;;;5067150;28;20260;-53
2022/11/11 01:37:58;;;;;;;16.07;11.30;;;10.50;99.90;;;;;;5068573;28;20212;-53
2022/11/11 01:40:25;;;;;;;15.40;10.63;;;10.50;99.90;;;;;;5067842;28;20293;-51
2022/11/11 01:43:22;;;;;;;18.27;10.30;;;10.50;99.90;;;;;;5068875;28;20226;-52
2022/11/11 01:46:02;;;;;;;18.20;11.73;;;10.50;99.90;;;;;;5059489;28;20699;-51
2022/11/11 01:51:35;;;;;;;15.83;11.03;;;10.50;99.90;;;;;;5069913;28;20255;-52
2022/11/11 01:54:07;;;;;;;19.73;11.03;;;10.50;99.90;;;;;;5066971;28;20288;-52
2022/11/11 01:56:34;;;;;;;15.37;10.33;;;10.50;99.90;;;;;;5064117;28;20202;-53
2022/11/11 01:59:07;;;;;;;17.97;11.57;;;10.50;99.90;;;;;;5065519;28;20210;-53
2022/11/11 02:01:35;;;;;;;14.73;10.87;;;10.50;99.90;;;;;;5068924;28;20621;-52
2022/11/11 02:06:54;;;;;;;17.33;10.60;;;10.50;99.90;;;;;;5065406;28;20203;-53
2022/11/11 02:09:23;;;;;;;19.37;11.43;;;10.50;99.90;;;;;;5060999;28;21329;-52
2022/11/11 02:14:45;;;;;;;18.53;10.40;;;10.50;99.90;;;;;;5059056;28;20297;-53
2022/11/11 02:17:15;;;;;;;15.23;9.87;;;10.50;99.90;;;;;;5059283;28;20216;-52
2022/11/11 02:19:49;;;;;;;22.60;10.70;;;10.40;99.90;;;;;;5057733;28;20633;-54
2022/11/11 02:22:39;;;;;;;17.17;11.30;;;10.40;99.90;;;;;;5062695;28;20269;-51
2022/11/11 02:25:10;;;;;;;14.37;10.37;;;10.40;99.90;;;;;;5061092;28;20212;-55
2022/11/11 02:27:41;;;;;;;15.67;10.17;;;10.40;99.90;;;;;;5060573;28;20261;-53
2022/11/11 02:30:14;;;;;;;15.00;9.83;;;10.40;99.90;;;;;;5067648;28;20204;-53
2022/11/11 02:32:47;;;;;;;15.73;10.87;;;10.40;99.90;;;;;;5064055;28;20233;-52
2022/11/11 02:35:17;;;;;;;13.80;9.67;;;10.40;99.90;;;;;;5065146;28;20198;-52
2022/11/11 02:37:47;;;;;;;16.53;9.30;;;10.40;99.90;;;;;;5073336;28;20206;-51
2022/11/11 02:40:25;;;;;;;14.40;9.73;;;10.40;99.90;;;;;;5066154;28;20209;-52
2022/11/11 02:42:52;;;;;;;14.23;9.27;;;10.40;99.90;;;;;;5065226;28;20237;-53
2022/11/11 02:45:20;;;;;;;14.37;8.70;;;10.30;99.90;;;;;;5065503;28;20218;-53
2022/11/11 02:47:47;;;;;;;13.23;8.97;;;10.40;99.90;;;;;;5078952;28;20202;-53
2022/11/11 02:50:14;;;;;;;13.63;8.47;;;10.30;99.90;;;;;;5075726;28;20190;-52
2022/11/11 02:52:41;;;;;;;15.60;9.17;;;10.30;99.90;;;;;;5066113;28;20225;-52
2022/11/11 02:55:08;;;;;;;14.90;9.03;;;10.30;99.90;;;;;;5064514;28;20270;-52
2022/11/11 02:57:35;;;;;;;13.00;9.30;;;10.30;99.90;;;;;;5067049;28;20209;-54
2022/11/11 03:00:03;;;;;;;14.70;8.83;;;10.30;99.90;;;;;;5065175;28;20297;-52
2022/11/11 03:02:31;;;;;;;13.33;8.73;;;10.30;99.90;;;;;;5067311;28;20746;-52
2022/11/11 03:04:58;;;;;;;13.30;7.90;;;10.30;99.90;;;;;;5065387;28;20747;-53
2022/11/11 03:07:25;;;;;;;15.27;8.87;;;10.30;99.90;;;;;;5044960;28;20551;-52
2022/11/11 03:09:52;;;;;;;11.77;7.90;;;10.20;99.90;;;;;;5065460;28;20226;-53
2022/11/11 03:12:19;;;;;;;11.33;8.00;;;10.30;99.90;;;;;;5062107;28;20194;-53
2022/11/11 03:14:46;;;;;;;14.20;8.00;;;10.20;99.90;;;;;;5057423;28;20208;-54
2022/11/11 03:21:03;;;;;;;13.60;8.13;;;10.20;99.90;;;;;;5060386;28;20291;-56
2022/11/11 03:23:02;;;;;;;11.77;7.40;;;10.20;99.90;;;;;;5066371;28;20581;-52
2022/11/11 03:25:38;;;;;;;12.27;7.40;;;10.20;99.90;;;;;;5065575;28;20671;-53
2022/11/11 03:28:11;;;;;;;11.27;6.70;;;10.20;99.90;;;;;;5072625;28;20228;-53
2022/11/11 03:30:40;;;;;;;13.80;7.87;;;10.20;99.90;;;;;;5070073;28;20652;-53
2022/11/11 03:33:07;;;;;;;13.97;8.13;;;10.20;99.90;;;;;;5066161;28;20212;-54
2022/11/11 03:35:35;;;;;;;10.97;7.97;;;10.20;99.90;;;;;;5065933;28;20211;-52
2022/11/11 03:38:15;;;;;;;13.33;8.10;;;10.10;99.90;;;;;;5067367;28;20295;-53
2022/11/11 03:40:46;;;;;;;12.33;7.77;;;10.10;99.90;;;;;;5075108;28;20292;-52
2022/11/11 03:43:16;;;;;;;14.53;7.17;;;10.10;99.90;;;;;;5073845;28;20193;-53
2022/11/11 03:45:44;;;;;;;13.23;7.40;;;10.10;99.90;;;;;;5066253;28;20193;-52
2022/11/11 03:48:11;;;;;;;18.80;8.80;;;10.10;99.90;;;;;;5066106;28;20206;-52
2022/11/11 03:50:38;;;;;;;15.13;8.63;;;10.10;99.90;;;;;;5067011;28;20502;-53
2022/11/11 03:53:05;;;;;;;15.07;8.53;;;10.10;99.90;;;;;;5066141;28;20242;-55
2022/11/11 03:55:32;;;;;;;17.17;7.97;;;10.00;99.90;;;;;;5067758;28;20649;-52
2022/11/11 03:57:58;;;;;;;12.73;8.33;;;10.00;99.90;;;;;;5067301;28;20205;-53
2022/11/11 04:00:27;;;;;;;10.70;7.37;;;10.10;99.90;;;;;;5068117;28;20664;-52
2022/11/11 04:11:44;;;;;;;11.67;7.60;;;10.00;99.90;;;;;;5065737;28;20828;-53
2022/11/11 04:16:58;;;;;;;12.23;7.90;;;9.90;99.90;;;;;;5065647;28;20205;-54
2022/11/11 04:22:11;;;;;;;12.73;7.57;;;9.90;99.90;;;;;;5065009;28;20211;-53
2022/11/11 04:27:23;;;;;;;13.50;8.10;;;9.90;99.90;;;;;;5067293;28;20236;-52
2022/11/11 04:29:51;;;;;;;10.83;7.43;;;9.90;99.90;;;;;;5067831;28;20588;-55
2022/11/11 04:32:34;;;;;;;11.17;7.87;;;9.90;99.90;;;;;;5062208;28;20203;-53
2022/11/11 04:35:10;;;;;;;14.63;7.73;;;9.80;99.90;;;;;;5062595;28;20200;-53
2022/11/11 04:37:46;;;;;;;15.53;8.73;;;9.80;99.90;;;;;;5063261;28;20279;-54
2022/11/11 04:42:58;;;;;;;13.87;7.63;;;9.80;99.90;;;;;;5062781;28;20202;-52
2022/11/11 04:45:31;;;;;;;14.87;8.17;;;9.80;99.90;;;;;;5062415;28;20301;-52
2022/11/11 04:48:07;;;;;;;13.03;7.33;;;9.70;99.90;;;;;;5063157;28;20776;-52
2022/11/11 04:50:34;;;;;;;12.37;7.47;;;9.80;99.90;;;;;;5062397;28;20294;-53
2022/11/11 04:53:04;;;;;;;16.03;8.20;;;9.70;99.90;;;;;;5064175;28;20289;-53
2022/11/11 04:58:19;;;;;;;11.10;7.40;;;9.70;99.90;;;;;;5064594;28;20272;-52
2022/11/11 05:00:46;;;;;;;13.50;8.27;;;9.80;99.90;;;;;;5060104;28;20294;-52
2022/11/11 05:03:17;;;;;;;18.13;8.20;;;9.70;99.90;;;;;;5061531;28;20776;-52
2022/11/11 05:09:00;;;;;;;13.37;7.33;;;9.70;99.90;;;;;;5063217;28;20747;-52
2022/11/11 05:11:31;;;;;;;15.10;7.67;;;9.60;99.90;;;;;;5058881;28;20611;-52
2022/11/11 05:22:34;;;;;;;13.20;7.60;;;9.60;99.90;;;;;;5062074;28;20623;-52
2022/11/11 05:27:46;;;;;;;13.67;8.23;;;9.60;99.90;;;;;;5061966;28;20584;-62
2022/11/11 05:30:14;;;;;;;11.50;7.47;;;9.60;99.90;;;;;;5063467;28;20194;-54
2022/11/11 05:32:41;;;;;;;12.53;7.63;;;9.60;99.90;;;;;;5062317;28;20216;-52
2022/11/11 05:35:09;;;;;;;15.47;8.10;;;9.60;99.90;;;;;;5063988;28;20218;-53
2022/11/11 05:37:36;;;;;;;15.57;8.90;;;9.60;99.90;;;;;;5070582;28;20241;-52
2022/11/11 05:40:03;;;;;;;14.23;8.43;;;9.60;99.90;;;;;;5068124;28;20718;-53
2022/11/11 05:42:30;;;;;;;12.87;8.23;;;9.60;99.90;;;;;;5068294;28;20242;-52
2022/11/11 05:44:57;;;;;;;12.53;9.00;;;9.60;99.90;;;;;;5070775;28;20207;-52
2022/11/11 05:47:25;;;;;;;14.03;8.33;;;9.50;99.90;;;;;;5069126;28;20285;-53
2022/11/11 05:49:52;;;;;;;12.40;7.53;;;9.60;99.90;;;;;;5065362;28;20206;-52
2022/11/11 05:52:19;;;;;;;15.53;8.97;;;9.60;99.90;;;;;;5065865;28;20197;-53
2022/11/11 05:54:45;;;;;;;13.13;8.00;;;9.50;99.90;;;;;;5068239;28;20274;-53
2022/11/11 05:57:12;;;;;;;12.83;7.77;;;9.50;99.90;;;;;;5069909;28;20202;-51
2022/11/11 05:59:39;;;;;;;14.13;8.90;;;9.40;99.90;;;;;;5067950;28;20207;-53
2022/11/11 06:02:06;;;;;;;15.20;8.50;;;9.40;99.90;;;;;;5064938;28;20236;-51
2022/11/11 06:04:34;;;;;;;15.27;7.77;;;9.40;99.90;;;;;;5069849;28;20219;-51
2022/11/11 06:07:01;;;;;;;13.77;9.03;;;9.40;99.90;;;;;;5061191;28;20202;-52
2022/11/11 06:09:28;;;;;;;13.40;8.50;;;9.40;99.90;;;;;;5061412;28;20195;-52
2022/11/11 06:11:54;;;;;;;13.07;7.77;;;9.30;99.90;;;;;;5063029;28;20218;-50
2022/11/11 06:14:21;;;;;;;11.53;7.77;;;9.30;99.90;;;;;;5059974;28;20208;-54
2022/11/11 06:16:48;;;;;;;12.70;7.80;;;9.30;99.90;;;;;;5060863;28;20285;-50
2022/11/11 06:19:15;;;;;;;15.23;8.63;;;9.30;99.90;;;;;;5057278;28;20205;-54
2022/11/11 06:21:57;;;;;;;14.27;8.43;;;9.30;99.90;;;;;;5075574;28;20237;-51
2022/11/11 06:24:24;;;;;;;13.50;7.47;;;9.30;99.90;;;;;;5058468;28;20216;-54
2022/11/11 06:26:54;;;;;;;14.83;8.23;;;9.20;99.90;;;;;;5058740;28;20214;-54
2022/11/11 06:29:21;;;;;;;16.00;9.13;;;9.20;99.90;;;;;;5061051;28;20203;-56
2022/11/11 06:31:48;;;;;;;13.30;8.80;;;9.30;99.90;;;;;;5060278;28;20640;-54
2022/11/11 06:34:15;;;;;;;14.23;9.10;;;9.30;99.90;;;;;;5059929;28;20212;-58
2022/11/11 06:36:42;;;;;;;12.17;8.00;;;9.20;99.90;;;;;;5061081;28;20280;-53
2022/11/11 06:39:09;;;;;;;13.47;8.37;;;9.20;99.90;;;;;;5065053;28;20200;-52
2022/11/11 06:41:36;;;;;;;13.10;9.10;;;9.20;99.90;;;;;;5067557;28;20199;-53
2022/11/11 06:44:02;;;;;;;14.87;8.80;;;9.20;99.90;;;;;;5065621;28;20203;-53
2022/11/11 06:46:29;;;;;;;12.30;8.17;;;9.20;99.90;;;;;;5063991;28;20329;-55
2022/11/11 06:48:57;;;;;;;15.20;9.07;;;9.20;99.90;;;;;;5067734;28;20688;-52
2022/11/11 06:51:23;;;;;;;14.20;8.23;;;9.20;99.90;;;;;;5067454;28;20191;-53
2022/11/11 06:53:51;;;;;;;14.73;8.93;;;9.20;99.90;;;;;;5063664;28;20202;-54
2022/11/11 06:56:17;;;;;;;15.70;9.73;;;9.10;99.90;;;;;;5066346;28;20200;-51
2022/11/11 06:58:44;;;;;;;15.57;8.03;;;9.20;99.90;;;;;;5069838;28;20651;-53
2022/11/11 07:01:12;;;;;;;12.43;8.50;;;9.20;99.90;;;;;;5060165;28;20222;-52
2022/11/11 07:03:40;;;;;;;14.70;8.30;;;9.20;99.90;;;;;;5080958;28;20557;-53
2022/11/11 07:06:07;;;;;;;12.57;9.43;;;9.10;99.90;;;;;;5059142;28;20245;-53
2022/11/11 07:08:34;;;;;;;13.50;8.83;;;9.10;99.90;;;;;;5056781;28;20191;-52
2022/11/11 07:11:01;;;;;;;15.70;8.77;;;9.10;99.90;;;;;;5047775;28;20307;-55
2022/11/11 07:13:39;;;;;;;12.60;8.40;;;9.10;99.90;;;;;;5044800;28;20758;-53
2022/11/11 07:16:07;;;;;;;18.37;8.90;;;9.10;99.90;;;;;;5058988;28;20670;-54
2022/11/11 07:18:34;;;;;;;14.93;9.03;;;9.00;99.90;;;;;;5061652;28;20248;-53
2022/11/11 07:21:00;;;;;;;15.23;8.73;;;9.00;99.90;;;;;;5060394;28;20285;-52
2022/11/11 07:23:27;;;;;;;13.57;8.90;;;9.10;99.90;;;;;;5060629;28;20233;-53
2022/11/11 07:25:54;;;;;;;18.63;9.13;;;9.10;99.90;;;;;;5056960;28;20347;-55
2022/11/11 07:28:21;;;;;;;13.87;9.00;;;9.10;99.90;;;;;;5061458;28;20243;-52
2022/11/11 07:30:48;;;;;;;13.03;9.27;;;9.00;99.90;;;;;;5057076;28;20227;-52
2022/11/11 07:33:15;;;;;;;14.10;8.80;;;9.00;99.90;;;;;;5058113;28;20613;-52
2022/11/11 07:35:48;;;;;;;13.77;8.70;;;9.00;99.90;;;;;;5063320;28;20627;-52
2022/11/11 07:38:15;;;;;;;15.23;9.13;;;9.10;99.90;;;;;;5061761;28;20205;-53
2022/11/11 07:40:42;;;;;;;14.17;8.90;;;9.10;99.90;;;;;;5057959;28;20292;-53
2022/11/11 07:43:09;;;;;;;13.13;8.43;;;9.10;99.90;;;;;;5058846;28;20384;-53
2022/11/11 07:45:36;;;;;;;17.23;8.17;;;9.10;99.90;;;;;;5059732;28;20213;-52
2022/11/11 07:48:03;;;;;;;11.87;8.50;;;9.10;99.90;;;;;;5058820;28;20201;-51
2022/11/11 07:50:30;;;;;;;17.70;8.90;;;9.10;99.90;;;;;;5057524;28;20286;-53
2022/11/11 07:52:57;;;;;;;13.03;8.83;;;9.10;99.90;;;;;;5058833;28;20202;-52
2022/11/11 07:55:23;;;;;;;13.43;8.27;;;9.10;99.90;;;;;;5060030;28;20214;-54
2022/11/11 07:57:53;;;;;;;12.10;8.50;;;9.10;99.90;;;;;;5060753;28;20209;-53
2022/11/11 08:00:20;;;;;;;16.03;8.43;;;9.10;99.90;;;;;;5057485;28;20325;-53
2022/11/11 08:02:48;;;;;;;11.33;7.47;;;9.20;99.90;;;;;;5066804;28;20210;-55
2022/11/11 08:05:15;;;;;;;12.53;7.57;;;9.20;99.90;;;;;;5064308;28;20213;-53
2022/11/11 08:07:42;;;;;;;11.60;7.23;;;9.10;99.90;;;;;;5068668;28;20214;-52
2022/11/11 08:10:10;;;;;;;12.53;7.53;;;9.20;99.90;;;;;;5069980;28;20748;-52
2022/11/11 08:15:23;;;;;;;13.93;8.03;;;9.10;99.90;;;;;;5059920;28;20204;-52
2022/11/11 08:17:49;;;;;;;9.93;7.33;;;9.20;99.90;;;;;;5067397;28;20194;-54
2022/11/11 08:20:17;;;;;;;12.93;7.37;;;9.10;99.90;;;;;;5068411;28;20309;-55
2022/11/11 08:22:44;;;;;;;11.00;6.90;;;9.20;99.90;;;;;;5076703;28;20210;-51
2022/11/11 08:25:31;;;;;;;10.80;7.40;;;9.10;99.90;;;;;;5065174;28;20624;-52
2022/11/11 08:28:02;;;;;;;11.00;7.27;;;9.10;99.90;;;;;;5060714;28;20748;-59
2022/11/11 08:30:31;;;;;;;11.20;7.33;;;9.10;99.90;;;;;;5074711;28;20195;-59
2022/11/11 08:32:58;;;;;;;10.60;7.73;;;9.20;99.90;;;;;;5062814;28;20231;-59
2022/11/11 08:35:45;;;;;;;10.03;6.80;;;9.30;99.90;;;;;;5059286;28;20275;-59
2022/11/11 08:38:12;;;;;;;12.80;7.20;;;9.40;99.90;;;;;;5067372;28;20195;-59
2022/11/11 08:40:39;;;;;;;15.97;8.33;;;9.30;99.90;;;;;;5062060;28;20199;-53
2022/11/11 08:43:06;;;;;;;9.53;7.50;;;9.30;99.90;;;;;;5069518;28;20557;-54
2022/11/11 08:45:33;;;;;;;10.87;7.47;;;9.30;99.90;;;;;;5061959;28;20604;-53
2022/11/11 08:48:00;;;;;;;11.67;7.13;;;9.40;99.90;;;;;;5065992;28;20282;-55
2022/11/11 08:50:27;;;;;;;15.27;7.53;;;9.40;99.90;;;;;;5063249;28;20507;-52
2022/11/11 08:52:53;;;;;;;11.27;6.73;;;9.50;99.90;;;;;;5062265;28;20277;-55
2022/11/11 08:55:20;;;;;;;10.50;7.43;;;9.50;99.90;;;;;;5070806;28;20212;-55
2022/11/11 08:57:47;;;;;;;10.33;6.93;;;9.70;99.90;;;;;;5082740;28;20218;-53
2022/11/11 09:00:14;;;;;;;8.53;6.43;;;9.60;99.90;;;;;;5066237;28;20545;-56
2022/11/11 09:02:41;;;;;;;12.70;7.40;;;9.60;99.90;;;;;;5071104;28;20587;-51
2022/11/11 09:05:08;;;;;;;10.23;7.37;;;9.60;99.90;;;;;;5062444;28;20772;-54
2022/11/11 09:07:35;;;;;;;12.70;6.80;;;9.80;99.90;;;;;;5062878;28;20200;-53
2022/11/11 09:10:02;;;;;;;12.80;7.10;;;9.80;99.90;;;;;;5061868;28;20264;-53
2022/11/11 09:12:28;;;;;;;11.37;7.20;;;9.80;99.90;;;;;;5052852;28;20222;-54
2022/11/11 09:14:55;;;;;;;11.70;6.57;;;9.70;99.90;;;;;;5057666;28;20203;-53
2022/11/11 09:17:22;;;;;;;12.03;6.60;;;9.80;99.90;;;;;;5062038;28;20754;-54
2022/11/11 09:19:49;;;;;;;10.60;6.30;;;9.90;99.90;;;;;;5063867;28;20201;-53
2022/11/11 09:22:15;;;;;;;11.03;7.03;;;9.80;99.90;;;;;;5067512;28;20214;-53
2022/11/11 09:24:42;;;;;;;9.70;6.17;;;10.00;99.90;;;;;;5069800;28;20196;-53
2022/11/11 09:27:10;;;;;;;8.87;6.00;;;10.30;99.90;;;;;;5059227;28;20214;-53
2022/11/11 09:29:37;;;;;;;9.93;6.47;;;10.00;99.90;;;;;;5068040;28;20226;-53
2022/11/11 09:32:04;;;;;;;8.57;5.70;;;10.10;99.90;;;;;;5070578;28;20206;-53
2022/11/11 09:34:30;;;;;;;9.83;6.53;;;10.20;99.90;;;;;;5069656;28;20290;-53
2022/11/11 09:36:57;;;;;;;10.50;6.97;;;10.30;99.90;;;;;;5066970;28;20227;-53
2022/11/11 09:39:24;;;;;;;10.17;6.53;;;10.40;99.90;;;;;;5066694;28;20225;-53
2022/11/11 09:41:59;;;;;;;10.53;6.50;;;10.30;99.90;;;;;;5069105;28;20211;-56
2022/11/11 09:45:11;;;;;;;10.07;6.63;;;10.20;99.90;;;;;;5067877;28;20670;-52
2022/11/11 09:48:01;;;;;;;7.20;6.10;;;10.40;99.90;;;;;;5069087;28;20206;-52
2022/11/11 09:50:39;;;;;;;9.60;6.40;;;10.40;99.90;;;;;;5066028;28;20226;-52
2022/11/11 09:53:15;;;;;;;10.37;6.33;;;10.40;99.90;;;;;;5068659;28;20200;-52
2022/11/11 09:56:12;;;;;;;12.63;7.37;;;10.30;99.90;;;;;;5067081;28;20268;-52
2022/11/11 09:59:07;;;;;;;9.37;6.27;;;10.50;99.90;;;;;;5063796;28;20608;-52
2022/11/11 10:01:45;;;;;;;8.27;6.33;;;10.50;99.90;;;;;;5062773;28;20207;-54
2022/11/11 10:04:28;;;;;;;9.90;6.40;;;11.00;99.90;;;;;;5068219;28;20286;-53
2022/11/11 10:07:08;;;;;;;10.77;6.73;;;10.90;99.90;;;;;;5067789;28;20216;-55
2022/11/11 10:09:48;;;;;;;10.03;6.13;;;10.70;99.90;;;;;;5068292;28;20195;-53
2022/11/11 10:12:16;;;;;;;9.87;5.50;;;10.80;99.90;;;;;;5060104;28;20203;-53
2022/11/11 10:14:45;;;;;;;10.57;6.40;;;10.60;99.90;;;;;;5061967;28;20210;-52
2022/11/11 10:17:34;;;;;;;11.93;7.03;;;10.60;99.90;;;;;;5065547;28;20211;-54
2022/11/11 10:20:13;;;;;;;10.40;6.60;;;10.60;99.90;;;;;;5066073;28;20211;-52
2022/11/11 10:22:42;;;;;;;10.17;6.80;;;10.60;99.90;;;;;;5067680;28;20858;-53
2022/11/11 10:25:11;;;;;;;13.70;6.53;;;10.70;99.90;;;;;;5067311;28;20577;-52
2022/11/11 10:27:46;;;;;;;9.00;5.53;;;11.00;99.90;;;;;;5059981;28;20206;-54
2022/11/11 10:30:18;;;;;;;9.43;5.87;;;11.00;99.90;;;;;;5067028;28;20199;-53
2022/11/11 10:33:09;;;;;;;7.73;6.07;;;10.80;99.90;;;;;;5068008;28;20213;-55
2022/11/11 10:35:40;;;;;;;9.77;6.07;;;10.80;99.90;;;;;;5052627;28;20258;-52
2022/11/11 10:38:09;;;;;;;7.73;6.37;;;10.80;99.90;;;;;;5068105;28;20202;-54
2022/11/11 10:40:47;;;;;;;13.50;6.50;;;10.80;99.90;;;;;;5065185;28;20290;-53
2022/11/11 10:43:23;;;;;;;9.23;6.40;;;10.80;99.90;;;;;;5068092;28;20235;-52
2022/11/11 10:46:01;;;;;;;12.10;7.17;;;10.80;99.90;;;;;;5066285;28;20596;-52
2022/11/11 10:48:49;;;;;;;12.07;6.30;;;10.80;99.90;;;;;;5059039;28;20333;-52
2022/11/11 10:51:17;;;;;;;10.40;6.63;;;10.90;99.90;;;;;;5062730;28;20202;-52
2022/11/11 10:54:00;;;;;;;11.10;6.60;;;11.00;99.90;;;;;;5060044;28;20286;-53
2022/11/11 10:56:55;;;;;;;9.97;6.10;;;11.20;99.90;;;;;;5059992;28;20202;-52
2022/11/11 10:59:38;;;;;;;9.67;5.97;;;11.30;99.90;;;;;;5066708;28;20925;-53
2022/11/11 11:02:21;;;;;;;10.53;5.90;;;11.20;99.90;;;;;;5060539;28;20630;-52
2022/11/11 11:04:59;;;;;;;14.00;6.67;;;11.10;99.90;;;;;;5059284;28;20285;-53
2022/11/11 11:07:49;;;;;;;11.60;6.17;;;11.30;99.90;;;;;;5061481;28;21035;-52
2022/11/11 11:10:26;;;;;;;8.90;6.00;;;11.60;99.90;;;;;;5065882;28;20223;-53
2022/11/11 11:13:23;;;;;;;7.40;5.77;;;11.60;99.90;;;;;;5060258;28;20199;-52
2022/11/11 11:15:57;;;;;;;8.07;5.97;;;11.50;99.90;;;;;;5065000;28;20207;-52
2022/11/11 11:18:25;;;;;;;8.37;5.23;;;11.60;99.90;;;;;;5061163;28;20198;-52
2022/11/11 11:21:03;;;;;;;7.53;5.57;;;11.80;99.90;;;;;;5067677;28;20688;-51
2022/11/11 11:23:42;;;;;;;9.77;5.53;;;12.10;99.90;;;;;;5066221;28;20297;-54
2022/11/11 11:26:10;;;;;;;8.70;5.63;;;12.40;99.90;;;;;;5063866;28;20667;-53
2022/11/11 11:29:00;;;;;;;13.63;5.73;;;12.60;99.90;;;;;;5063315;28;20220;-53
2022/11/11 11:31:41;;;;;;;6.87;5.00;;;12.30;99.90;;;;;;5067153;28;20203;-53
2022/11/11 11:34:08;;;;;;;7.37;4.70;;;12.40;99.90;;;;;;5055788;28;20193;-52
2022/11/11 11:36:35;;;;;;;10.27;5.37;;;12.50;99.90;;;;;;5072653;28;20207;-53
2022/11/11 11:39:02;;;;;;;6.20;4.47;;;12.50;99.90;;;;;;5067056;28;20216;-53
2022/11/11 11:41:38;;;;;;;8.07;4.33;;;12.50;99.90;;;;;;5063986;28;20255;-52
2022/11/11 11:44:26;;;;;;;10.53;5.33;;;12.60;99.90;;;;;;5070262;28;20727;-52
2022/11/11 11:47:19;;;;;;;8.30;4.30;;;12.50;99.90;;;;;;5070884;28;20335;-54
2022/11/11 11:49:52;;;;;;;7.43;4.63;;;12.50;99.90;;;;;;5068423;28;20280;-53
2022/11/11 11:52:45;;;;;;;9.53;5.23;;;12.70;99.90;;;;;;5069088;28;20199;-53
2022/11/11 11:55:15;;;;;;;7.43;4.97;;;12.90;99.90;;;;;;5065011;28;20255;-55
2022/11/11 11:57:48;;;;;;;8.40;4.80;;;13.00;99.90;;;;;;5069329;28;20288;-54
2022/11/11 12:00:23;;;;;;;8.83;5.93;;;13.10;99.90;;;;;;5069185;28;20212;-53
2022/11/11 12:02:49;;;;;;;9.03;4.77;;;13.30;99.90;;;;;;5068676;28;20213;-53
2022/11/11 12:05:37;;;;;;;7.30;4.73;;;13.20;99.90;;;;;;5067236;28;20258;-54
2022/11/11 12:08:19;;;;;;;7.37;5.37;;;13.30;99.90;;;;;;5062913;28;20214;-53
2022/11/11 12:11:13;;;;;;;8.70;4.77;;;13.20;99.90;;;;;;5069745;28;20241;-52
2022/11/11 12:13:40;;;;;;;6.83;5.07;;;13.30;99.90;;;;;;5063431;28;20212;-54
2022/11/11 12:16:23;;;;;;;5.50;4.30;;;13.60;99.90;;;;;;5066602;28;20238;-53
2022/11/11 12:19:03;;;;;;;7.37;4.80;;;13.80;99.90;;;;;;5065655;28;20206;-52
2022/11/11 12:21:53;;;;;;;7.30;3.97;;;14.10;99.90;;;;;;5070366;28;20206;-53
2022/11/11 12:24:28;;;;;;;26.60;4.50;;;14.10;99.90;;;;;;5066482;28;20676;-53
2022/11/11 12:27:14;;;;;;;6.27;4.30;;;13.80;99.90;;;;;;5068852;28;20218;-53
2022/11/11 12:29:56;;;;;;;5.03;3.63;;;13.90;99.90;;;;;;5069334;28;20722;-53
2022/11/11 12:32:45;;;;;;;4.73;4.03;;;14.20;99.90;;;;;;5066952;28;20207;-53
2022/11/11 12:35:18;;;;;;;4.90;3.83;;;14.40;99.90;;;;;;5064847;28;20209;-53
2022/11/11 12:37:48;;;;;;;5.90;3.77;;;14.30;99.90;;;;;;5077906;28;20212;-53
2022/11/11 12:40:34;;;;;;;6.27;4.13;;;14.40;99.90;;;;;;5070818;28;20216;-53
2022/11/11 12:43:18;;;;;;;4.90;3.40;;;14.20;99.90;;;;;;5068104;28;20208;-53
2022/11/11 12:45:51;;;;;;;5.07;3.70;;;14.20;99.90;;;;;;5069281;28;20636;-52
2022/11/11 12:49:04;;;;;;;6.17;3.67;;;14.30;99.90;;;;;;5069636;28;20566;-54
2022/11/11 12:51:42;;;;;;;5.63;3.10;;;14.20;99.90;;;;;;5066291;28;20558;-54
2022/11/11 12:54:41;;;;;;;5.90;3.90;;;14.00;99.90;;;;;;5068537;28;20203;-53
2022/11/11 12:57:55;;;;;;;3.80;2.80;;;14.10;99.90;;;;;;5065793;28;20297;-52
2022/11/11 13:00:23;;;;;;;5.13;3.70;;;13.90;99.90;;;;;;5074068;28;20206;-53
2022/11/11 13:02:59;;;;;;;6.40;3.60;;;13.80;99.90;;;;;;5068507;28;20327;-54
2022/11/11 13:05:37;;;;;;;5.53;3.53;;;13.90;99.90;;;;;;5064241;28;20241;-52
2022/11/11 13:08:07;;;;;;;4.80;3.77;;;13.90;99.90;;;;;;5062319;28;20359;-52
2022/11/11 13:10:40;;;;;;;6.43;3.43;;;13.70;99.90;;;;;;5067840;28;20230;-52
2022/11/11 13:13:43;;;;;;;5.47;3.27;;;13.90;99.90;;;;;;5069100;28;20260;-55
2022/11/11 13:16:10;;;;;;;4.03;3.37;;;14.20;99.90;;;;;;5065178;28;20238;-52
2022/11/11 13:19:03;;;;;;;5.50;3.40;;;14.00;99.90;;;;;;5064454;28;20202;-54
2022/11/11 13:22:11;;;;;;;3.30;2.67;;;13.80;99.90;;;;;;5062220;28;20241;-52
2022/11/11 13:24:38;;;;;;;6.90;3.30;;;13.80;99.90;;;;;;5062032;28;20214;-51
2022/11/11 13:27:26;;;;;;;4.27;3.40;;;13.80;99.90;;;;;;5066287;28;20210;-56
2022/11/11 13:30:15;;;;;;;5.03;2.93;;;13.60;99.90;;;;;;5059536;28;20234;-54
2022/11/11 13:32:45;;;;;;;5.00;3.30;;;13.80;99.90;;;;;;5066963;28;20614;-52
2022/11/11 13:35:34;;;;;;;4.27;2.73;;;13.60;99.90;;;;;;5066355;28;20222;-51
2022/11/11 13:38:01;;;;;;;4.40;2.83;;;13.60;99.90;;;;;;5062695;28;20834;-54
2022/11/11 13:40:40;;;;;;;4.50;3.30;;;13.50;99.90;;;;;;5063990;28;20213;-51
2022/11/11 13:43:43;;;;;;;6.87;2.23;;;13.70;99.90;;;;;;5066058;28;20681;-52
2022/11/11 13:46:42;;;;;;;4.40;3.07;;;13.70;99.90;;;;;;5035133;28;22205;-51
2022/11/11 13:49:29;;;;;;;4.87;3.10;;;13.60;99.90;;;;;;5061327;28;20208;-51
2022/11/11 13:51:58;;;;;;;4.93;2.80;;;13.60;99.90;;;;;;5067416;28;20213;-53
2022/11/11 13:54:33;;;;;;;4.03;3.07;;;13.50;99.90;;;;;;5082125;28;20247;-52
2022/11/11 13:57:07;;;;;;;6.67;3.00;;;13.50;99.90;;;;;;5068638;28;20244;-57
2022/11/11 13:59:43;;;;;;;5.00;2.60;;;13.60;99.90;;;;;;5065741;28;20685;-54
2022/11/11 14:02:18;;;;;;;4.67;2.53;;;13.60;99.90;;;;;;5063274;28;20312;-55
2022/11/11 14:05:00;;;;;;;5.90;2.67;;;13.50;99.90;;;;;;5067663;28;20205;-54
2022/11/11 14:07:48;;;;;;;4.57;2.17;;;13.50;99.90;;;;;;5071156;28;20248;-53
2022/11/11 14:10:18;;;;;;;4.13;2.40;;;13.50;99.90;;;;;;5067943;28;20225;-52
2022/11/11 14:12:50;;;;;;;4.50;2.40;;;13.50;99.90;;;;;;5067665;28;20203;-52
2022/11/11 14:15:40;;;;;;;3.90;2.60;;;13.50;99.90;;;;;;5066642;28;20573;-54
2022/11/11 14:18:30;;;;;;;7.80;2.67;;;13.40;99.90;;;;;;5063283;28;20288;-54
2022/11/11 14:20:57;;;;;;;3.53;2.37;;;13.40;99.90;;;;;;5069412;28;20204;-50